createdAt,value
2023-11-22T00:00:58.503Z,54.78
2023-11-22T00:31:09.723Z,51.18
2023-11-22T01:01:13.928Z,50.96
2023-11-22T01:31:17.710Z,52.65
2023-11-22T02:01:21.996Z,50.33
2023-11-22T02:31:24.897Z,51.31
2023-11-22T03:01:29.335Z,49.64
2023-11-22T03:31:32.709Z,48.27
2023-11-22T04:01:35.999Z,51.88
2023-11-22T04:31:38.869Z,50.64
2023-11-22T05:01:43.312Z,48.43
2023-11-22T05:31:46.218Z,48.57
2023-11-22T06:01:50.788Z,49.74
2023-11-22T06:31:53.658Z,47.61
2023-11-22T07:01:58.520Z,47.71
2023-11-22T07:32:02.045Z,50.55
2023-11-22T08:02:05.608Z,55.98
2023-11-22T08:32:09.054Z,54.05
2023-11-22T09:02:12.751Z,48.76
2023-11-22T09:32:16.274Z,46.24
2023-11-22T10:02:20.437Z,47.42
2023-11-22T10:32:24.210Z,47.19
2023-11-22T11:02:27.325Z,51.35
2023-11-22T11:32:31.153Z,51.55
2023-11-22T12:02:35.858Z,46.10
2023-11-22T12:32:39.587Z,52.77
2023-11-22T13:02:52.395Z,47.28
2023-11-22T13:33:05.413Z,51.75
2023-11-22T14:03:09.482Z,47.87
2023-11-22T14:33:14.037Z,52.91
2023-11-22T15:03:17.129Z,53.55
2023-11-22T15:33:20.789Z,57.02
2023-11-22T16:03:24.423Z,56.29
2023-11-22T16:33:28.184Z,55.90
2023-11-22T17:03:31.943Z,56.37
2023-11-22T17:33:35.068Z,56.92
2023-11-22T18:03:39.129Z,54.58
2023-11-22T18:33:42.610Z,52.16
2023-11-22T19:03:47.040Z,53.76
2023-11-22T19:33:50.164Z,51.03
2023-11-22T20:03:54.682Z,51.31
2023-11-22T20:33:57.774Z,53.50
2023-11-22T21:04:01.624Z,53.77
2023-11-22T21:34:04.628Z,54.03
2023-11-22T22:04:08.462Z,53.40
2023-11-22T22:34:11.379Z,54.06
2023-11-22T23:04:15.188Z,54.98
2023-11-22T23:34:18.950Z,57.46
